sensor_id;sensor_type;location;lat;lon;timestamp;P1;durP1;ratioP1;P2;durP2;ratioP2
84933;SDS011;75195;56.858;41.422;2024-01-27T00:01:58;24.60;;;5.70;;
84933;SDS011;75195;56.858;41.422;2024-01-27T00:04:25;8.82;;;5.20;;
84933;SDS011;75195;56.858;41.422;2024-01-27T00:06:51;14.52;;;5.75;;
84933;SDS011;75195;56.858;41.422;2024-01-27T00:09:17;11.75;;;4.55;;
84933;SDS011;75195;56.858;41.422;2024-01-27T00:11:43;12.50;;;5.45;;
84933;SDS011;75195;56.858;41.422;2024-01-27T00:14:10;14.70;;;5.13;;
84933;SDS011;75195;56.858;41.422;2024-01-27T00:16:36;6.45;;;4.18;;
84933;SDS011;75195;56.858;41.422;2024-01-27T00:19:03;9.75;;;4.57;;
84933;SDS011;75195;56.858;41.422;2024-01-27T00:21:29;7.53;;;4.57;;
84933;SDS011;75195;56.858;41.422;2024-01-27T00:23:55;18.02;;;7.63;;
84933;SDS011;75195;56.858;41.422;2024-01-27T00:28:53;7.32;;;2.25;;
84933;SDS011;75195;56.858;41.422;2024-01-27T00:31:20;18.50;;;6.75;;
84933;SDS011;75195;56.858;41.422;2024-01-27T00:33:46;11.20;;;5.55;;
84933;SDS011;75195;56.858;41.422;2024-01-27T00:36:13;11.50;;;4.82;;
84933;SDS011;75195;56.858;41.422;2024-01-27T00:38:39;8.27;;;3.45;;
84933;SDS011;75195;56.858;41.422;2024-01-27T00:41:05;9.50;;;4.22;;
84933;SDS011;75195;56.858;41.422;2024-01-27T00:43:32;21.88;;;7.88;;
84933;SDS011;75195;56.858;41.422;2024-01-27T00:45:58;15.73;;;6.40;;
84933;SDS011;75195;56.858;41.422;2024-01-27T00:48:24;19.45;;;7.00;;
84933;SDS011;75195;56.858;41.422;2024-01-27T00:50:51;15.10;;;6.63;;
84933;SDS011;75195;56.858;41.422;2024-01-27T00:53:17;17.88;;;7.70;;
84933;SDS011;75195;56.858;41.422;2024-01-27T00:55:43;13.93;;;5.55;;
84933;SDS011;75195;56.858;41.422;2024-01-27T00:58:09;19.38;;;7.38;;
84933;SDS011;75195;56.858;41.422;2024-01-27T01:00:36;14.43;;;5.95;;
84933;SDS011;75195;56.858;41.422;2024-01-27T01:03:02;15.13;;;6.22;;
84933;SDS011;75195;56.858;41.422;2024-01-27T01:05:28;18.52;;;8.45;;
84933;SDS011;75195;56.858;41.422;2024-01-27T01:07:55;16.45;;;6.97;;
84933;SDS011;75195;56.858;41.422;2024-01-27T01:10:21;15.23;;;6.55;;
84933;SDS011;75195;56.858;41.422;2024-01-27T01:12:47;11.18;;;6.13;;
84933;SDS011;75195;56.858;41.422;2024-01-27T01:15:13;17.25;;;7.80;;
84933;SDS011;75195;56.858;41.422;2024-01-27T01:17:40;21.63;;;8.32;;
84933;SDS011;75195;56.858;41.422;2024-01-27T01:20:06;20.25;;;7.47;;
84933;SDS011;75195;56.858;41.422;2024-01-27T01:22:33;16.38;;;6.78;;
84933;SDS011;75195;56.858;41.422;2024-01-27T01:24:59;16.15;;;7.40;;
84933;SDS011;75195;56.858;41.422;2024-01-27T01:27:26;15.80;;;6.05;;
84933;SDS011;75195;56.858;41.422;2024-01-27T01:29:52;15.48;;;6.25;;
84933;SDS011;75195;56.858;41.422;2024-01-27T01:32:18;13.18;;;6.25;;
84933;SDS011;75195;56.858;41.422;2024-01-27T01:34:45;11.48;;;5.03;;
84933;SDS011;75195;56.858;41.422;2024-01-27T01:37:12;7.00;;;3.25;;
84933;SDS011;75195;56.858;41.422;2024-01-27T01:39:39;11.30;;;6.00;;
84933;SDS011;75195;56.858;41.422;2024-01-27T01:42:05;16.17;;;7.28;;
84933;SDS011;75195;56.858;41.422;2024-01-27T01:44:32;7.45;;;3.90;;
84933;SDS011;75195;56.858;41.422;2024-01-27T01:46:58;15.68;;;6.45;;
84933;SDS011;75195;56.858;41.422;2024-01-27T01:49:24;14.18;;;6.20;;
84933;SDS011;75195;56.858;41.422;2024-01-27T01:51:51;16.15;;;6.88;;
84933;SDS011;75195;56.858;41.422;2024-01-27T01:54:17;14.07;;;6.28;;
84933;SDS011;75195;56.858;41.422;2024-01-27T01:56:44;18.85;;;7.38;;
84933;SDS011;75195;56.858;41.422;2024-01-27T01:59:11;11.82;;;5.57;;
84933;SDS011;75195;56.858;41.422;2024-01-27T02:01:37;19.75;;;7.43;;
84933;SDS011;75195;56.858;41.422;2024-01-27T02:04:04;16.45;;;6.82;;
84933;SDS011;75195;56.858;41.422;2024-01-27T02:06:30;17.83;;;7.03;;
84933;SDS011;75195;56.858;41.422;2024-01-27T02:08:56;19.00;;;6.63;;
84933;SDS011;75195;56.858;41.422;2024-01-27T02:11:23;19.70;;;7.80;;
84933;SDS011;75195;56.858;41.422;2024-01-27T02:13:50;16.20;;;5.75;;
84933;SDS011;75195;56.858;41.422;2024-01-27T02:16:16;15.85;;;6.00;;
84933;SDS011;75195;56.858;41.422;2024-01-27T02:18:43;16.23;;;7.15;;
84933;SDS011;75195;56.858;41.422;2024-01-27T02:21:10;17.23;;;6.15;;
84933;SDS011;75195;56.858;41.422;2024-01-27T02:23:36;23.67;;;8.95;;
84933;SDS011;75195;56.858;41.422;2024-01-27T02:26:02;14.63;;;5.55;;
84933;SDS011;75195;56.858;41.422;2024-01-27T02:28:29;20.95;;;8.38;;
84933;SDS011;75195;56.858;41.422;2024-01-27T02:30:59;20.17;;;7.68;;
84933;SDS011;75195;56.858;41.422;2024-01-27T02:33:26;11.20;;;4.70;;
84933;SDS011;75195;56.858;41.422;2024-01-27T02:35:52;19.58;;;8.27;;
84933;SDS011;75195;56.858;41.422;2024-01-27T02:38:18;22.42;;;8.27;;
84933;SDS011;75195;56.858;41.422;2024-01-27T02:40:45;24.65;;;7.10;;
84933;SDS011;75195;56.858;41.422;2024-01-27T02:43:11;18.13;;;7.60;;
84933;SDS011;75195;56.858;41.422;2024-01-27T02:45:37;11.82;;;6.03;;
84933;SDS011;75195;56.858;41.422;2024-01-27T02:48:04;18.73;;;7.43;;
84933;SDS011;75195;56.858;41.422;2024-01-27T02:50:30;19.38;;;8.48;;
84933;SDS011;75195;56.858;41.422;2024-01-27T02:52:56;23.48;;;9.25;;
84933;SDS011;75195;56.858;41.422;2024-01-27T02:55:23;16.88;;;7.82;;
84933;SDS011;75195;56.858;41.422;2024-01-27T02:57:49;14.60;;;5.63;;
84933;SDS011;75195;56.858;41.422;2024-01-27T03:00:15;21.35;;;8.85;;
84933;SDS011;75195;56.858;41.422;2024-01-27T03:02:43;22.15;;;8.15;;
84933;SDS011;75195;56.858;41.422;2024-01-27T03:05:09;16.58;;;7.70;;
84933;SDS011;75195;56.858;41.422;2024-01-27T03:07:39;19.25;;;6.57;;
84933;SDS011;75195;56.858;41.422;2024-01-27T03:10:06;16.95;;;6.93;;
84933;SDS011;75195;56.858;41.422;2024-01-27T03:12:33;10.35;;;4.63;;
84933;SDS011;75195;56.858;41.422;2024-01-27T03:14:59;5.97;;;2.72;;
84933;SDS011;75195;56.858;41.422;2024-01-27T03:17:25;11.50;;;5.53;;
84933;SDS011;75195;56.858;41.422;2024-01-27T03:19:51;16.10;;;6.47;;
84933;SDS011;75195;56.858;41.422;2024-01-27T03:22:17;19.60;;;7.07;;
84933;SDS011;75195;56.858;41.422;2024-01-27T03:24:44;18.90;;;6.78;;
84933;SDS011;75195;56.858;41.422;2024-01-27T03:27:10;22.05;;;7.40;;
84933;SDS011;75195;56.858;41.422;2024-01-27T03:29:36;11.90;;;4.65;;
84933;SDS011;75195;56.858;41.422;2024-01-27T03:32:03;21.20;;;8.05;;
84933;SDS011;75195;56.858;41.422;2024-01-27T03:34:30;17.73;;;7.00;;
84933;SDS011;75195;56.858;41.422;2024-01-27T03:36:56;20.42;;;7.95;;
84933;SDS011;75195;56.858;41.422;2024-01-27T03:39:22;11.05;;;4.90;;
84933;SDS011;75195;56.858;41.422;2024-01-27T03:41:48;18.25;;;6.63;;
84933;SDS011;75195;56.858;41.422;2024-01-27T03:44:14;17.83;;;7.20;;
84933;SDS011;75195;56.858;41.422;2024-01-27T03:46:41;18.98;;;6.82;;
84933;SDS011;75195;56.858;41.422;2024-01-27T03:49:07;18.38;;;7.80;;
84933;SDS011;75195;56.858;41.422;2024-01-27T03:51:33;18.63;;;7.47;;
84933;SDS011;75195;56.858;41.422;2024-01-27T03:54:00;23.20;;;8.27;;
84933;SDS011;75195;56.858;41.422;2024-01-27T03:56:26;24.10;;;9.00;;
84933;SDS011;75195;56.858;41.422;2024-01-27T03:58:52;17.73;;;7.85;;
84933;SDS011;75195;56.858;41.422;2024-01-27T04:01:19;19.13;;;7.13;;
84933;SDS011;75195;56.858;41.422;2024-01-27T04:03:45;22.15;;;10.07;;
84933;SDS011;75195;56.858;41.422;2024-01-27T04:06:11;9.70;;;4.68;;
84933;SDS011;75195;56.858;41.422;2024-01-27T04:08:38;21.25;;;7.70;;
84933;SDS011;75195;56.858;41.422;2024-01-27T04:11:05;20.63;;;8.02;;
84933;SDS011;75195;56.858;41.422;2024-01-27T04:13:31;15.75;;;5.40;;
84933;SDS011;75195;56.858;41.422;2024-01-27T04:15:57;15.27;;;6.30;;
84933;SDS011;75195;56.858;41.422;2024-01-27T04:18:27;19.85;;;9.02;;
84933;SDS011;75195;56.858;41.422;2024-01-27T04:20:53;18.55;;;7.55;;
84933;SDS011;75195;56.858;41.422;2024-01-27T04:23:19;23.65;;;8.65;;
84933;SDS011;75195;56.858;41.422;2024-01-27T04:25:46;11.05;;;3.97;;
84933;SDS011;75195;56.858;41.422;2024-01-27T04:28:12;12.80;;;5.22;;
84933;SDS011;75195;56.858;41.422;2024-01-27T04:30:38;23.73;;;8.15;;
84933;SDS011;75195;56.858;41.422;2024-01-27T04:33:05;18.77;;;8.15;;
84933;SDS011;75195;56.858;41.422;2024-01-27T04:35:33;23.52;;;8.90;;
84933;SDS011;75195;56.858;41.422;2024-01-27T04:37:59;22.45;;;7.68;;
84933;SDS011;75195;56.858;41.422;2024-01-27T04:40:25;17.08;;;7.22;;
84933;SDS011;75195;56.858;41.422;2024-01-27T04:42:52;20.02;;;7.30;;
84933;SDS011;75195;56.858;41.422;2024-01-27T04:45:18;16.00;;;7.07;;
84933;SDS011;75195;56.858;41.422;2024-01-27T04:47:45;23.15;;;8.68;;
84933;SDS011;75195;56.858;41.422;2024-01-27T04:50:11;17.83;;;7.85;;
84933;SDS011;75195;56.858;41.422;2024-01-27T04:52:38;18.98;;;8.15;;
84933;SDS011;75195;56.858;41.422;2024-01-27T04:55:04;19.65;;;7.72;;
84933;SDS011;75195;56.858;41.422;2024-01-27T04:57:31;13.50;;;6.53;;
84933;SDS011;75195;56.858;41.422;2024-01-27T04:59:57;18.25;;;7.97;;
84933;SDS011;75195;56.858;41.422;2024-01-27T05:02:24;11.57;;;5.35;;
84933;SDS011;75195;56.858;41.422;2024-01-27T05:04:50;16.58;;;6.68;;
84933;SDS011;75195;56.858;41.422;2024-01-27T05:07:17;17.65;;;6.60;;
84933;SDS011;75195;56.858;41.422;2024-01-27T05:09:43;18.90;;;7.50;;
84933;SDS011;75195;56.858;41.422;2024-01-27T05:12:09;17.65;;;6.55;;
84933;SDS011;75195;56.858;41.422;2024-01-27T05:14:36;20.98;;;7.65;;
84933;SDS011;75195;56.858;41.422;2024-01-27T05:17:02;19.38;;;6.90;;
84933;SDS011;75195;56.858;41.422;2024-01-27T05:19:29;19.95;;;7.88;;
84933;SDS011;75195;56.858;41.422;2024-01-27T05:21:55;15.98;;;6.82;;
84933;SDS011;75195;56.858;41.422;2024-01-27T05:24:21;21.20;;;7.40;;
84933;SDS011;75195;56.858;41.422;2024-01-27T05:26:48;13.70;;;5.57;;
84933;SDS011;75195;56.858;41.422;2024-01-27T05:29:14;15.75;;;6.05;;
84933;SDS011;75195;56.858;41.422;2024-01-27T05:31:40;12.27;;;5.20;;
84933;SDS011;75195;56.858;41.422;2024-01-27T05:34:12;21.52;;;6.78;;
84933;SDS011;75195;56.858;41.422;2024-01-27T05:36:39;14.77;;;6.03;;
84933;SDS011;75195;56.858;41.422;2024-01-27T05:39:05;18.65;;;6.75;;
84933;SDS011;75195;56.858;41.422;2024-01-27T05:41:32;11.02;;;4.82;;
84933;SDS011;75195;56.858;41.422;2024-01-27T05:43:58;15.25;;;7.28;;
84933;SDS011;75195;56.858;41.422;2024-01-27T05:46:25;13.55;;;5.53;;
84933;SDS011;75195;56.858;41.422;2024-01-27T05:48:51;12.57;;;5.80;;
84933;SDS011;75195;56.858;41.422;2024-01-27T05:51:20;19.65;;;5.85;;
84933;SDS011;75195;56.858;41.422;2024-01-27T05:53:46;17.45;;;7.10;;
84933;SDS011;75195;56.858;41.422;2024-01-27T05:56:13;18.83;;;6.07;;
84933;SDS011;75195;56.858;41.422;2024-01-27T05:58:39;9.07;;;3.78;;
84933;SDS011;75195;56.858;41.422;2024-01-27T06:01:05;14.40;;;5.25;;
84933;SDS011;75195;56.858;41.422;2024-01-27T06:03:32;16.65;;;6.70;;
84933;SDS011;75195;56.858;41.422;2024-01-27T06:05:58;13.30;;;6.22;;
84933;SDS011;75195;56.858;41.422;2024-01-27T06:08:25;16.40;;;4.65;;
84933;SDS011;75195;56.858;41.422;2024-01-27T06:10:52;10.35;;;5.10;;
84933;SDS011;75195;56.858;41.422;2024-01-27T06:13:18;14.88;;;6.18;;
84933;SDS011;75195;56.858;41.422;2024-01-27T06:15:44;14.88;;;6.38;;
84933;SDS011;75195;56.858;41.422;2024-01-27T06:18:11;17.63;;;6.78;;
84933;SDS011;75195;56.858;41.422;2024-01-27T06:20:37;10.60;;;4.63;;
84933;SDS011;75195;56.858;41.422;2024-01-27T06:23:05;11.15;;;4.82;;
84933;SDS011;75195;56.858;41.422;2024-01-27T06:25:32;16.35;;;5.25;;
84933;SDS011;75195;56.858;41.422;2024-01-27T06:27:58;12.93;;;4.95;;
84933;SDS011;75195;56.858;41.422;2024-01-27T06:30:26;17.27;;;5.68;;
84933;SDS011;75195;56.858;41.422;2024-01-27T06:32:52;16.52;;;7.40;;
84933;SDS011;75195;56.858;41.422;2024-01-27T06:35:18;14.35;;;6.70;;
84933;SDS011;75195;56.858;41.422;2024-01-27T06:37:45;12.60;;;5.63;;
84933;SDS011;75195;56.858;41.422;2024-01-27T06:40:11;16.25;;;6.60;;
84933;SDS011;75195;56.858;41.422;2024-01-27T06:42:38;13.60;;;5.93;;
84933;SDS011;75195;56.858;41.422;2024-01-27T06:45:04;13.60;;;5.90;;
84933;SDS011;75195;56.858;41.422;2024-01-27T06:47:31;12.80;;;5.20;;
84933;SDS011;75195;56.858;41.422;2024-01-27T06:49:58;12.75;;;5.55;;
84933;SDS011;75195;56.858;41.422;2024-01-27T06:52:24;16.15;;;5.75;;
84933;SDS011;75195;56.858;41.422;2024-01-27T06:54:50;15.50;;;6.50;;
84933;SDS011;75195;56.858;41.422;2024-01-27T06:57:20;14.35;;;5.28;;
84933;SDS011;75195;56.858;41.422;2024-01-27T06:59:51;13.05;;;4.75;;
84933;SDS011;75195;56.858;41.422;2024-01-27T07:02:22;13.23;;;5.18;;
84933;SDS011;75195;56.858;41.422;2024-01-27T07:04:50;14.32;;;6.53;;
84933;SDS011;75195;56.858;41.422;2024-01-27T07:07:17;12.70;;;5.95;;
84933;SDS011;75195;56.858;41.422;2024-01-27T07:09:44;12.23;;;5.03;;
84933;SDS011;75195;56.858;41.422;2024-01-27T07:12:10;6.75;;;3.85;;
84933;SDS011;75195;56.858;41.422;2024-01-27T07:14:36;15.40;;;6.82;;
84933;SDS011;75195;56.858;41.422;2024-01-27T07:17:03;22.00;;;7.22;;
84933;SDS011;75195;56.858;41.422;2024-01-27T07:19:30;14.73;;;6.18;;
84933;SDS011;75195;56.858;41.422;2024-01-27T07:21:58;13.07;;;5.35;;
84933;SDS011;75195;56.858;41.422;2024-01-27T07:24:26;16.92;;;7.43;;
84933;SDS011;75195;56.858;41.422;2024-01-27T07:26:52;24.65;;;8.55;;
84933;SDS011;75195;56.858;41.422;2024-01-27T07:29:19;16.42;;;5.90;;
84933;SDS011;75195;56.858;41.422;2024-01-27T07:31:46;15.20;;;6.68;;
84933;SDS011;75195;56.858;41.422;2024-01-27T07:34:12;16.73;;;6.53;;
84933;SDS011;75195;56.858;41.422;2024-01-27T07:36:39;11.05;;;4.38;;
84933;SDS011;75195;56.858;41.422;2024-01-27T07:39:05;16.73;;;6.85;;
84933;SDS011;75195;56.858;41.422;2024-01-27T07:41:31;15.18;;;6.60;;
84933;SDS011;75195;56.858;41.422;2024-01-27T07:44:06;22.33;;;8.70;;
84933;SDS011;75195;56.858;41.422;2024-01-27T07:46:33;16.95;;;6.05;;
84933;SDS011;75195;56.858;41.422;2024-01-27T07:49:00;15.80;;;6.28;;
84933;SDS011;75195;56.858;41.422;2024-01-27T07:51:27;12.73;;;5.00;;
84933;SDS011;75195;56.858;41.422;2024-01-27T07:53:53;13.57;;;5.70;;
84933;SDS011;75195;56.858;41.422;2024-01-27T07:56:20;14.30;;;6.18;;
84933;SDS011;75195;56.858;41.422;2024-01-27T07:58:46;12.27;;;5.28;;
84933;SDS011;75195;56.858;41.422;2024-01-27T08:01:15;23.10;;;8.60;;
84933;SDS011;75195;56.858;41.422;2024-01-27T08:03:43;16.70;;;7.22;;
84933;SDS011;75195;56.858;41.422;2024-01-27T08:06:14;14.55;;;6.30;;
84933;SDS011;75195;56.858;41.422;2024-01-27T08:08:48;14.77;;;5.90;;
84933;SDS011;75195;56.858;41.422;2024-01-27T08:11:14;13.13;;;6.38;;
84933;SDS011;75195;56.858;41.422;2024-01-27T08:13:41;21.35;;;7.93;;
84933;SDS011;75195;56.858;41.422;2024-01-27T08:16:08;27.98;;;10.85;;
84933;SDS011;75195;56.858;41.422;2024-01-27T08:18:36;17.50;;;7.32;;
84933;SDS011;75195;56.858;41.422;2024-01-27T08:21:03;33.63;;;13.90;;
84933;SDS011;75195;56.858;41.422;2024-01-27T08:23:29;15.65;;;6.93;;
84933;SDS011;75195;56.858;41.422;2024-01-27T08:25:56;16.88;;;7.22;;
84933;SDS011;75195;56.858;41.422;2024-01-27T08:28:22;16.38;;;7.47;;
84933;SDS011;75195;56.858;41.422;2024-01-27T08:30:49;15.23;;;6.10;;
84933;SDS011;75195;56.858;41.422;2024-01-27T08:33:15;17.38;;;7.32;;
84933;SDS011;75195;56.858;41.422;2024-01-27T08:35:41;15.23;;;7.22;;
84933;SDS011;75195;56.858;41.422;2024-01-27T08:38:08;18.17;;;6.63;;
84933;SDS011;75195;56.858;41.422;2024-01-27T08:40:35;11.85;;;5.72;;
84933;SDS011;75195;56.858;41.422;2024-01-27T08:43:01;14.68;;;5.15;;
84933;SDS011;75195;56.858;41.422;2024-01-27T08:45:28;18.02;;;6.80;;
84933;SDS011;75195;56.858;41.422;2024-01-27T08:47:54;11.70;;;4.90;;
84933;SDS011;75195;56.858;41.422;2024-01-27T08:50:21;19.13;;;7.80;;
84933;SDS011;75195;56.858;41.422;2024-01-27T08:52:47;12.35;;;5.28;;
84933;SDS011;75195;56.858;41.422;2024-01-27T08:55:14;17.20;;;7.38;;
84933;SDS011;75195;56.858;41.422;2024-01-27T08:57:47;20.73;;;8.00;;
84933;SDS011;75195;56.858;41.422;2024-01-27T09:00:14;19.00;;;7.93;;
84933;SDS011;75195;56.858;41.422;2024-01-27T09:02:42;17.15;;;6.55;;
84933;SDS011;75195;56.858;41.422;2024-01-27T09:05:09;16.45;;;6.28;;
84933;SDS011;75195;56.858;41.422;2024-01-27T09:07:35;18.58;;;7.47;;
84933;SDS011;75195;56.858;41.422;2024-01-27T09:10:02;12.07;;;5.07;;
84933;SDS011;75195;56.858;41.422;2024-01-27T09:12:29;16.85;;;7.28;;
84933;SDS011;75195;56.858;41.422;2024-01-27T09:14:56;19.58;;;8.20;;
84933;SDS011;75195;56.858;41.422;2024-01-27T09:17:22;11.25;;;3.78;;
84933;SDS011;75195;56.858;41.422;2024-01-27T09:19:48;15.10;;;6.30;;
84933;SDS011;75195;56.858;41.422;2024-01-27T09:22:15;14.75;;;6.47;;
84933;SDS011;75195;56.858;41.422;2024-01-27T09:24:41;11.50;;;5.57;;
84933;SDS011;75195;56.858;41.422;2024-01-27T09:27:07;15.25;;;6.15;;
84933;SDS011;75195;56.858;41.422;2024-01-27T09:29:34;14.05;;;5.50;;
84933;SDS011;75195;56.858;41.422;2024-01-27T09:32:00;19.20;;;6.47;;
84933;SDS011;75195;56.858;41.422;2024-01-27T09:34:27;17.50;;;6.72;;
84933;SDS011;75195;56.858;41.422;2024-01-27T09:36:53;15.18;;;6.18;;
84933;SDS011;75195;56.858;41.422;2024-01-27T09:39:19;9.07;;;4.70;;
84933;SDS011;75195;56.858;41.422;2024-01-27T09:41:46;17.95;;;7.20;;
84933;SDS011;75195;56.858;41.422;2024-01-27T09:44:13;17.35;;;6.75;;
84933;SDS011;75195;56.858;41.422;2024-01-27T09:46:42;15.13;;;7.13;;
84933;SDS011;75195;56.858;41.422;2024-01-27T09:49:08;11.30;;;6.05;;
84933;SDS011;75195;56.858;41.422;2024-01-27T09:51:38;20.55;;;7.50;;
84933;SDS011;75195;56.858;41.422;2024-01-27T09:54:12;14.35;;;6.05;;
84933;SDS011;75195;56.858;41.422;2024-01-27T09:56:39;17.85;;;7.88;;
84933;SDS011;75195;56.858;41.422;2024-01-27T09:59:05;23.40;;;9.25;;
84933;SDS011;75195;56.858;41.422;2024-01-27T10:01:32;16.35;;;6.13;;
84933;SDS011;75195;56.858;41.422;2024-01-27T10:03:59;13.38;;;6.28;;
84933;SDS011;75195;56.858;41.422;2024-01-27T10:06:26;16.10;;;5.72;;
84933;SDS011;75195;56.858;41.422;2024-01-27T10:08:53;19.15;;;7.05;;
84933;SDS011;75195;56.858;41.422;2024-01-27T10:11:20;14.63;;;6.95;;
84933;SDS011;75195;56.858;41.422;2024-01-27T10:13:55;15.18;;;7.07;;
84933;SDS011;75195;56.858;41.422;2024-01-27T10:16:21;18.75;;;7.38;;
84933;SDS011;75195;56.858;41.422;2024-01-27T10:18:58;18.25;;;7.43;;
84933;SDS011;75195;56.858;41.422;2024-01-27T10:21:26;18.52;;;6.72;;
84933;SDS011;75195;56.858;41.422;2024-01-27T10:23:53;23.83;;;8.35;;
84933;SDS011;75195;56.858;41.422;2024-01-27T10:26:19;28.15;;;10.32;;
84933;SDS011;75195;56.858;41.422;2024-01-27T10:28:52;24.95;;;9.57;;
84933;SDS011;75195;56.858;41.422;2024-01-27T10:31:19;18.98;;;6.95;;
84933;SDS011;75195;56.858;41.422;2024-01-27T10:33:52;18.38;;;7.70;;
84933;SDS011;75195;56.858;41.422;2024-01-27T10:36:20;21.83;;;7.93;;
84933;SDS011;75195;56.858;41.422;2024-01-27T10:38:46;18.63;;;7.40;;
84933;SDS011;75195;56.858;41.422;2024-01-27T10:41:12;20.48;;;8.90;;
84933;SDS011;75195;56.858;41.422;2024-01-27T10:43:53;16.52;;;5.80;;
84933;SDS011;75195;56.858;41.422;2024-01-27T10:46:21;19.50;;;7.53;;
84933;SDS011;75195;56.858;41.422;2024-01-27T10:48:49;13.65;;;5.25;;
84933;SDS011;75195;56.858;41.422;2024-01-27T10:51:40;12.35;;;6.00;;
84933;SDS011;75195;56.858;41.422;2024-01-27T10:54:05;19.30;;;7.40;;
84933;SDS011;75195;56.858;41.422;2024-01-27T10:56:33;15.68;;;5.03;;
84933;SDS011;75195;56.858;41.422;2024-01-27T10:59:00;22.95;;;9.75;;
84933;SDS011;75195;56.858;41.422;2024-01-27T11:01:28;19.13;;;8.13;;
84933;SDS011;75195;56.858;41.422;2024-01-27T11:03:54;20.40;;;8.57;;
84933;SDS011;75195;56.858;41.422;2024-01-27T11:06:21;19.50;;;8.57;;
84933;SDS011;75195;56.858;41.422;2024-01-27T11:08:49;12.32;;;4.45;;
84933;SDS011;75195;56.858;41.422;2024-01-27T11:11:16;14.25;;;6.07;;
84933;SDS011;75195;56.858;41.422;2024-01-27T11:13:43;15.77;;;6.53;;
84933;SDS011;75195;56.858;41.422;2024-01-27T11:16:18;10.93;;;4.97;;
84933;SDS011;75195;56.858;41.422;2024-01-27T11:18:44;16.48;;;8.13;;
84933;SDS011;75195;56.858;41.422;2024-01-27T11:21:17;19.95;;;9.65;;
84933;SDS011;75195;56.858;41.422;2024-01-27T11:23:43;21.58;;;7.22;;
84933;SDS011;75195;56.858;41.422;2024-01-27T11:26:16;19.45;;;6.95;;
84933;SDS011;75195;56.858;41.422;2024-01-27T11:28:44;15.48;;;6.15;;
84933;SDS011;75195;56.858;41.422;2024-01-27T11:31:10;24.83;;;9.02;;
84933;SDS011;75195;56.858;41.422;2024-01-27T11:33:44;23.90;;;7.30;;
84933;SDS011;75195;56.858;41.422;2024-01-27T11:36:21;19.17;;;7.88;;
84933;SDS011;75195;56.858;41.422;2024-01-27T11:38:52;21.88;;;9.25;;
84933;SDS011;75195;56.858;41.422;2024-01-27T11:41:26;24.45;;;10.55;;
84933;SDS011;75195;56.858;41.422;2024-01-27T11:43:56;23.92;;;8.68;;
84933;SDS011;75195;56.858;41.422;2024-01-27T11:46:25;19.45;;;8.43;;
84933;SDS011;75195;56.858;41.422;2024-01-27T11:48:51;21.00;;;7.47;;
84933;SDS011;75195;56.858;41.422;2024-01-27T11:51:18;14.30;;;5.68;;
84933;SDS011;75195;56.858;41.422;2024-01-27T11:53:45;44.80;;;15.55;;
84933;SDS011;75195;56.858;41.422;2024-01-27T11:56:13;45.10;;;20.40;;
84933;SDS011;75195;56.858;41.422;2024-01-27T11:58:45;21.00;;;8.80;;
84933;SDS011;75195;56.858;41.422;2024-01-27T12:01:15;39.90;;;16.85;;
84933;SDS011;75195;56.858;41.422;2024-01-27T12:03:41;44.92;;;17.42;;
84933;SDS011;75195;56.858;41.422;2024-01-27T12:06:08;26.15;;;10.30;;
84933;SDS011;75195;56.858;41.422;2024-01-27T12:08:35;26.48;;;8.90;;
84933;SDS011;75195;56.858;41.422;2024-01-27T12:11:01;22.85;;;9.15;;
84933;SDS011;75195;56.858;41.422;2024-01-27T12:13:28;19.30;;;6.93;;
84933;SDS011;75195;56.858;41.422;2024-01-27T12:15:55;23.33;;;8.02;;
84933;SDS011;75195;56.858;41.422;2024-01-27T12:18:21;22.17;;;9.55;;
84933;SDS011;75195;56.858;41.422;2024-01-27T12:20:47;27.40;;;11.65;;
84933;SDS011;75195;56.858;41.422;2024-01-27T12:23:14;18.75;;;8.65;;
84933;SDS011;75195;56.858;41.422;2024-01-27T12:25:42;14.70;;;5.60;;
84933;SDS011;75195;56.858;41.422;2024-01-27T12:28:08;29.35;;;12.77;;
84933;SDS011;75195;56.858;41.422;2024-01-27T12:30:35;25.73;;;11.35;;
84933;SDS011;75195;56.858;41.422;2024-01-27T12:33:07;26.15;;;9.98;;
84933;SDS011;75195;56.858;41.422;2024-01-27T12:35:35;24.08;;;8.85;;
84933;SDS011;75195;56.858;41.422;2024-01-27T12:38:01;22.23;;;10.13;;
84933;SDS011;75195;56.858;41.422;2024-01-27T12:40:28;24.42;;;9.30;;
84933;SDS011;75195;56.858;41.422;2024-01-27T12:42:55;32.30;;;12.20;;
84933;SDS011;75195;56.858;41.422;2024-01-27T12:45:21;19.85;;;9.93;;
84933;SDS011;75195;56.858;41.422;2024-01-27T12:47:48;36.78;;;13.60;;
84933;SDS011;75195;56.858;41.422;2024-01-27T12:50:14;27.75;;;11.38;;
84933;SDS011;75195;56.858;41.422;2024-01-27T12:52:42;26.25;;;10.63;;
84933;SDS011;75195;56.858;41.422;2024-01-27T12:55:08;25.83;;;11.30;;
84933;SDS011;75195;56.858;41.422;2024-01-27T12:57:34;19.95;;;8.80;;
84933;SDS011;75195;56.858;41.422;2024-01-27T13:00:01;27.70;;;10.85;;
84933;SDS011;75195;56.858;41.422;2024-01-27T13:02:39;19.85;;;9.30;;
84933;SDS011;75195;56.858;41.422;2024-01-27T13:05:06;29.92;;;11.27;;
84933;SDS011;75195;56.858;41.422;2024-01-27T13:07:32;24.70;;;10.65;;
84933;SDS011;75195;56.858;41.422;2024-01-27T13:09:59;19.52;;;8.05;;
84933;SDS011;75195;56.858;41.422;2024-01-27T13:12:25;19.75;;;7.72;;
84933;SDS011;75195;56.858;41.422;2024-01-27T13:14:52;18.65;;;6.80;;
84933;SDS011;75195;56.858;41.422;2024-01-27T13:17:18;20.95;;;8.15;;
84933;SDS011;75195;56.858;41.422;2024-01-27T13:19:45;23.25;;;8.00;;
84933;SDS011;75195;56.858;41.422;2024-01-27T13:22:12;24.60;;;8.82;;
84933;SDS011;75195;56.858;41.422;2024-01-27T13:24:38;24.10;;;9.07;;
84933;SDS011;75195;56.858;41.422;2024-01-27T13:27:04;25.45;;;9.93;;
84933;SDS011;75195;56.858;41.422;2024-01-27T13:29:31;19.58;;;8.10;;
84933;SDS011;75195;56.858;41.422;2024-01-27T13:31:58;18.65;;;7.00;;
84933;SDS011;75195;56.858;41.422;2024-01-27T13:34:27;19.40;;;7.00;;
84933;SDS011;75195;56.858;41.422;2024-01-27T13:36:56;18.30;;;7.88;;
84933;SDS011;75195;56.858;41.422;2024-01-27T13:39:23;18.75;;;9.18;;
84933;SDS011;75195;56.858;41.422;2024-01-27T13:41:49;15.73;;;6.97;;
84933;SDS011;75195;56.858;41.422;2024-01-27T13:44:15;21.38;;;8.25;;
84933;SDS011;75195;56.858;41.422;2024-01-27T13:46:42;16.50;;;8.23;;
84933;SDS011;75195;56.858;41.422;2024-01-27T13:49:08;20.10;;;7.72;;
84933;SDS011;75195;56.858;41.422;2024-01-27T13:51:34;16.10;;;5.95;;
84933;SDS011;75195;56.858;41.422;2024-01-27T13:54:00;18.88;;;6.43;;
84933;SDS011;75195;56.858;41.422;2024-01-27T13:56:28;99.60;;;30.05;;
84933;SDS011;75195;56.858;41.422;2024-01-27T13:58:58;138.60;;;42.88;;
84933;SDS011;75195;56.858;41.422;2024-01-27T14:01:24;101.50;;;36.00;;
84933;SDS011;75195;56.858;41.422;2024-01-27T14:03:51;67.03;;;22.95;;
84933;SDS011;75195;56.858;41.422;2024-01-27T14:06:17;44.83;;;15.85;;
84933;SDS011;75195;56.858;41.422;2024-01-27T14:08:43;34.30;;;13.68;;
84933;SDS011;75195;56.858;41.422;2024-01-27T14:11:10;30.30;;;12.15;;
84933;SDS011;75195;56.858;41.422;2024-01-27T14:13:37;41.88;;;15.30;;
84933;SDS011;75195;56.858;41.422;2024-01-27T14:16:03;44.10;;;17.02;;
84933;SDS011;75195;56.858;41.422;2024-01-27T14:18:30;25.58;;;10.75;;
84933;SDS011;75195;56.858;41.422;2024-01-27T14:20:57;30.75;;;12.65;;
84933;SDS011;75195;56.858;41.422;2024-01-27T14:23:23;19.65;;;8.98;;